sensor_id;sensor_type;location;lat;lon;timestamp;pressure;altitude;pressure_sealevel;temperature;humidity
32873;BME280;19224;52.462;16.898;2023-11-21T00:00:28;99503.00;;;8.81;100.00
32873;BME280;19224;52.462;16.898;2023-11-21T00:03:00;99503.06;;;8.71;100.00
32873;BME280;19224;52.462;16.898;2023-11-21T00:05:30;99514.19;;;8.63;100.00
32873;BME280;19224;52.462;16.898;2023-11-21T00:08:01;99517.43;;;8.70;100.00
32873;BME280;19224;52.462;16.898;2023-11-21T00:10:31;99509.60;;;8.65;100.00
32873;BME280;19224;52.462;16.898;2023-11-21T00:13:02;99511.44;;;8.65;100.00
32873;BME280;19224;52.462;16.898;2023-11-21T00:15:32;99507.69;;;8.50;100.00
32873;BME280;19224;52.462;16.898;2023-11-21T00:18:03;99505.06;;;8.49;100.00
32873;BME280;19224;52.462;16.898;2023-11-21T00:20:34;99518.14;;;8.56;100.00
32873;BME280;19224;52.462;16.898;2023-11-21T00:23:04;99521.63;;;8.75;100.00
32873;BME280;19224;52.462;16.898;2023-11-21T00:25:38;99523.34;;;8.59;100.00
32873;BME280;19224;52.462;16.898;2023-11-21T00:28:09;99523.95;;;8.47;100.00
32873;BME280;19224;52.462;16.898;2023-11-21T00:30:39;99531.86;;;8.32;100.00
32873;BME280;19224;52.462;16.898;2023-11-21T00:33:10;99531.34;;;8.24;100.00
32873;BME280;19224;52.462;16.898;2023-11-21T00:35:40;99537.05;;;8.16;100.00
32873;BME280;19224;52.462;16.898;2023-11-21T00:38:10;99537.05;;;8.16;100.00
32873;BME280;19224;52.462;16.898;2023-11-21T00:40:41;99543.63;;;8.19;100.00
32873;BME280;19224;52.462;16.898;2023-11-21T00:43:11;99539.55;;;8.21;100.00
32873;BME280;19224;52.462;16.898;2023-11-21T00:45:43;99543.36;;;8.15;100.00
32873;BME280;19224;52.462;16.898;2023-11-21T00:48:13;99541.52;;;7.97;100.00
32873;BME280;19224;52.462;16.898;2023-11-21T00:50:44;99535.66;;;7.89;100.00
32873;BME280;19224;52.462;16.898;2023-11-21T00:53:15;99545.16;;;7.86;100.00
32873;BME280;19224;52.462;16.898;2023-11-21T00:55:46;99548.43;;;7.93;100.00
32873;BME280;19224;52.462;16.898;2023-11-21T00:58:17;99549.79;;;7.83;100.00
32873;BME280;19224;52.462;16.898;2023-11-21T01:00:47;99545.77;;;7.83;100.00
32873;BME280;19224;52.462;16.898;2023-11-21T01:03:18;99546.92;;;7.77;100.00
32873;BME280;19224;52.462;16.898;2023-11-21T01:05:48;99546.41;;;7.79;100.00
32873;BME280;19224;52.462;16.898;2023-11-21T01:08:19;99542.19;;;7.74;100.00
32873;BME280;19224;52.462;16.898;2023-11-21T01:10:50;99544.18;;;7.79;100.00
32873;BME280;19224;52.462;16.898;2023-11-21T01:13:20;99554.45;;;7.69;100.00
32873;BME280;19224;52.462;16.898;2023-11-21T01:15:51;99552.95;;;7.82;100.00
32873;BME280;19224;52.462;16.898;2023-11-21T01:18:21;99550.84;;;7.70;100.00
32873;BME280;19224;52.462;16.898;2023-11-21T01:20:53;99553.53;;;7.50;100.00
32873;BME280;19224;52.462;16.898;2023-11-21T01:23:23;99549.25;;;7.66;100.00
32873;BME280;19224;52.462;16.898;2023-11-21T01:25:56;99556.20;;;7.70;100.00
32873;BME280;19224;52.462;16.898;2023-11-21T01:28:28;99560.22;;;7.70;100.00
32873;BME280;19224;52.462;16.898;2023-11-21T01:30:59;99566.72;;;7.55;100.00
32873;BME280;19224;52.462;16.898;2023-11-21T01:33:29;99567.13;;;7.46;100.00
32873;BME280;19224;52.462;16.898;2023-11-21T01:35:59;99567.32;;;7.61;100.00
32873;BME280;19224;52.462;16.898;2023-11-21T01:38:29;99570.94;;;7.50;100.00
32873;BME280;19224;52.462;16.898;2023-11-21T01:41:01;99570.59;;;7.38;100.00
32873;BME280;19224;52.462;16.898;2023-11-21T01:43:32;99578.18;;;7.48;100.00
32873;BME280;19224;52.462;16.898;2023-11-21T01:46:03;99564.30;;;7.49;100.00
32873;BME280;19224;52.462;16.898;2023-11-21T01:48:35;99567.52;;;7.47;100.00
32873;BME280;19224;52.462;16.898;2023-11-21T01:51:08;99575.50;;;7.38;100.00
32873;BME280;19224;52.462;16.898;2023-11-21T01:53:39;99575.90;;;7.49;100.00
32873;BME280;19224;52.462;16.898;2023-11-21T01:56:10;99577.38;;;7.46;100.00
32873;BME280;19224;52.462;16.898;2023-11-21T01:58:41;99582.20;;;7.48;100.00
32873;BME280;19224;52.462;16.898;2023-11-21T02:01:12;99581.66;;;7.50;100.00
32873;BME280;19224;52.462;16.898;2023-11-21T02:03:43;99591.43;;;7.41;100.00
32873;BME280;19224;52.462;16.898;2023-11-21T02:06:13;99590.23;;;7.58;100.00
32873;BME280;19224;52.462;16.898;2023-11-21T02:08:44;99590.98;;;7.52;100.00
32873;BME280;19224;52.462;16.898;2023-11-21T02:11:14;99600.00;;;7.39;100.00
32873;BME280;19224;52.462;16.898;2023-11-21T02:13:45;99603.38;;;7.44;100.00
32873;BME280;19224;52.462;16.898;2023-11-21T02:16:16;99600.33;;;7.22;100.00
32873;BME280;19224;52.462;16.898;2023-11-21T02:18:47;99603.98;;;7.09;100.00
32873;BME280;19224;52.462;16.898;2023-11-21T02:21:18;99600.89;;;7.08;100.00
32873;BME280;19224;52.462;16.898;2023-11-21T02:23:48;99606.71;;;6.98;100.00
32873;BME280;19224;52.462;16.898;2023-11-21T02:26:18;99616.96;;;7.08;100.00
32873;BME280;19224;52.462;16.898;2023-11-21T02:28:49;99612.30;;;7.13;100.00
32873;BME280;19224;52.462;16.898;2023-11-21T02:31:21;99616.75;;;7.03;100.00
32873;BME280;19224;52.462;16.898;2023-11-21T02:33:52;99621.78;;;7.10;100.00
32873;BME280;19224;52.462;16.898;2023-11-21T02:36:22;99624.59;;;7.07;100.00
32873;BME280;19224;52.462;16.898;2023-11-21T02:38:52;99626.47;;;7.05;100.00
32873;BME280;19224;52.462;16.898;2023-11-21T02:41:22;99629.73;;;7.23;100.00
32873;BME280;19224;52.462;16.898;2023-11-21T02:43:53;99631.84;;;6.94;100.00
32873;BME280;19224;52.462;16.898;2023-11-21T02:46:24;99630.55;;;6.83;100.00
32873;BME280;19224;52.462;16.898;2023-11-21T02:48:54;99634.44;;;6.86;100.00
32873;BME280;19224;52.462;16.898;2023-11-21T02:51:25;99636.80;;;6.93;100.00
32873;BME280;19224;52.462;16.898;2023-11-21T02:53:56;99645.27;;;6.83;100.00
32873;BME280;19224;52.462;16.898;2023-11-21T02:56:29;99638.80;;;6.88;100.00
32873;BME280;19224;52.462;16.898;2023-11-21T02:59:00;99636.39;;;6.71;100.00
32873;BME280;19224;52.462;16.898;2023-11-21T03:01:31;99634.08;;;6.62;100.00
32873;BME280;19224;52.462;16.898;2023-11-21T03:04:01;99637.60;;;6.74;100.00
32873;BME280;19224;52.462;16.898;2023-11-21T03:06:31;99639.08;;;6.71;100.00
32873;BME280;19224;52.462;16.898;2023-11-21T03:09:03;99641.34;;;6.58;100.00
32873;BME280;19224;52.462;16.898;2023-11-21T03:11:35;99646.25;;;6.80;100.00
32873;BME280;19224;52.462;16.898;2023-11-21T03:14:05;99648.21;;;6.65;100.00
32873;BME280;19224;52.462;16.898;2023-11-21T03:16:36;99653.81;;;6.48;100.00
32873;BME280;19224;52.462;16.898;2023-11-21T03:19:07;99654.49;;;6.53;100.00
32873;BME280;19224;52.462;16.898;2023-11-21T03:21:37;99661.53;;;6.44;100.00
32873;BME280;19224;52.462;16.898;2023-11-21T03:24:08;99657.83;;;6.48;100.00
32873;BME280;19224;52.462;16.898;2023-11-21T03:26:38;99659.96;;;6.38;100.00
32873;BME280;19224;52.462;16.898;2023-11-21T03:29:09;99662.87;;;6.21;100.00
32873;BME280;19224;52.462;16.898;2023-11-21T03:31:45;99671.13;;;6.15;100.00
32873;BME280;19224;52.462;16.898;2023-11-21T03:34:24;99669.77;;;6.03;100.00
32873;BME280;19224;52.462;16.898;2023-11-21T03:36:57;99677.81;;;6.15;100.00
32873;BME280;19224;52.462;16.898;2023-11-21T03:39:27;99676.93;;;6.14;100.00
32873;BME280;19224;52.462;16.898;2023-11-21T03:41:58;99681.23;;;6.07;100.00
32873;BME280;19224;52.462;16.898;2023-11-21T03:44:28;99683.30;;;5.99;100.00
32873;BME280;19224;52.462;16.898;2023-11-21T03:46:58;99687.09;;;6.05;100.00
32873;BME280;19224;52.462;16.898;2023-11-21T03:49:28;99683.81;;;5.97;100.00
32873;BME280;19224;52.462;16.898;2023-11-21T03:51:59;99685.56;;;5.98;100.00
32873;BME280;19224;52.462;16.898;2023-11-21T03:54:29;99685.68;;;5.95;100.00
32873;BME280;19224;52.462;16.898;2023-11-21T03:56:59;99683.30;;;5.99;100.00
32873;BME280;19224;52.462;16.898;2023-11-21T03:59:30;99685.83;;;5.79;100.00
32873;BME280;19224;52.462;16.898;2023-11-21T04:02:00;99683.23;;;5.63;100.00
32873;BME280;19224;52.462;16.898;2023-11-21T04:04:30;99674.53;;;5.58;100.00
32873;BME280;19224;52.462;16.898;2023-11-21T04:07:01;99681.03;;;5.49;100.00
32873;BME280;19224;52.462;16.898;2023-11-21T04:09:32;99677.39;;;5.52;100.00
32873;BME280;19224;52.462;16.898;2023-11-21T04:12:03;99682.73;;;5.52;100.00
32873;BME280;19224;52.462;16.898;2023-11-21T04:14:33;99679.71;;;5.62;100.00
32873;BME280;19224;52.462;16.898;2023-11-21T04:17:04;99687.13;;;5.66;100.00
32873;BME280;19224;52.462;16.898;2023-11-21T04:19:34;99687.13;;;5.66;100.00
32873;BME280;19224;52.462;16.898;2023-11-21T04:22:05;99689.64;;;5.46;100.00
32873;BME280;19224;52.462;16.898;2023-11-21T04:24:35;99686.89;;;5.47;100.00
32873;BME280;19224;52.462;16.898;2023-11-21T04:27:06;99687.83;;;5.33;100.00
32873;BME280;19224;52.462;16.898;2023-11-21T04:29:36;99693.28;;;5.30;100.00
32873;BME280;19224;52.462;16.898;2023-11-21T04:32:07;99701.33;;;5.16;100.00
32873;BME280;19224;52.462;16.898;2023-11-21T04:34:37;99704.81;;;5.31;100.00
32873;BME280;19224;52.462;16.898;2023-11-21T04:37:08;99709.63;;;5.20;100.00
32873;BME280;19224;52.462;16.898;2023-11-21T04:39:39;99715.60;;;5.28;100.00
32873;BME280;19224;52.462;16.898;2023-11-21T04:42:10;99720.50;;;5.28;100.00
32873;BME280;19224;52.462;16.898;2023-11-21T04:44:41;99722.58;;;5.32;100.00
32873;BME280;19224;52.462;16.898;2023-11-21T04:47:13;99725.84;;;5.41;100.00
32873;BME280;19224;52.462;16.898;2023-11-21T04:49:43;99734.70;;;5.29;100.00
32873;BME280;19224;52.462;16.898;2023-11-21T04:52:14;99730.80;;;5.26;100.00
32873;BME280;19224;52.462;16.898;2023-11-21T04:54:44;99731.47;;;5.32;100.00
32873;BME280;19224;52.462;16.898;2023-11-21T04:57:14;99733.77;;;5.30;100.00
32873;BME280;19224;52.462;16.898;2023-11-21T04:59:46;99737.99;;;5.24;100.00
32873;BME280;19224;52.462;16.898;2023-11-21T05:02:16;99744.84;;;5.18;100.00
32873;BME280;19224;52.462;16.898;2023-11-21T05:04:48;99749.14;;;5.09;100.00
32873;BME280;19224;52.462;16.898;2023-11-21T05:07:18;99756.30;;;4.94;100.00
32873;BME280;19224;52.462;16.898;2023-11-21T05:09:48;99759.75;;;4.83;100.00
32873;BME280;19224;52.462;16.898;2023-11-21T05:12:19;99762.97;;;4.94;100.00
32873;BME280;19224;52.462;16.898;2023-11-21T05:14:50;99760.57;;;4.99;100.00
32873;BME280;19224;52.462;16.898;2023-11-21T05:17:20;99766.05;;;4.95;100.00
32873;BME280;19224;52.462;16.898;2023-11-21T05:19:51;99768.00;;;4.90;100.00
32873;BME280;19224;52.462;16.898;2023-11-21T05:22:21;99777.12;;;4.96;100.00
32873;BME280;19224;52.462;16.898;2023-11-21T05:24:52;99769.97;;;4.69;100.00
32873;BME280;19224;52.462;16.898;2023-11-21T05:27:22;99777.91;;;4.70;100.00
32873;BME280;19224;52.462;16.898;2023-11-21T05:29:52;99787.95;;;4.63;100.00
32873;BME280;19224;52.462;16.898;2023-11-21T05:32:24;99790.48;;;4.67;100.00
32873;BME280;19224;52.462;16.898;2023-11-21T05:34:55;99793.13;;;4.96;100.00
32873;BME280;19224;52.462;16.898;2023-11-21T05:37:25;99790.53;;;4.94;100.00
32873;BME280;19224;52.462;16.898;2023-11-21T05:39:56;99798.43;;;4.83;100.00
32873;BME280;19224;52.462;16.898;2023-11-21T05:42:26;99797.46;;;4.71;100.00
32873;BME280;19224;52.462;16.898;2023-11-21T05:44:57;99796.70;;;4.66;100.00
32873;BME280;19224;52.462;16.898;2023-11-21T05:47:29;99795.84;;;4.65;100.00
32873;BME280;19224;52.462;16.898;2023-11-21T05:49:59;99796.03;;;4.74;100.00
32873;BME280;19224;52.462;16.898;2023-11-21T05:52:30;99803.05;;;4.62;100.00
32873;BME280;19224;52.462;16.898;2023-11-21T05:55:01;99798.23;;;4.60;100.00
32873;BME280;19224;52.462;16.898;2023-11-21T05:57:39;99804.01;;;4.59;100.00
32873;BME280;19224;52.462;16.898;2023-11-21T06:00:12;99812.64;;;4.53;100.00
32873;BME280;19224;52.462;16.898;2023-11-21T06:02:44;99815.66;;;4.57;100.00
32873;BME280;19224;52.462;16.898;2023-11-21T06:05:14;99823.37;;;4.66;100.00
32873;BME280;19224;52.462;16.898;2023-11-21T06:07:44;99821.82;;;4.59;100.00
32873;BME280;19224;52.462;16.898;2023-11-21T06:10:15;99828.58;;;4.56;100.00
32873;BME280;19224;52.462;16.898;2023-11-21T06:12:47;99835.28;;;4.55;100.00
32873;BME280;19224;52.462;16.898;2023-11-21T06:15:18;99842.16;;;4.47;100.00
32873;BME280;19224;52.462;16.898;2023-11-21T06:17:51;99845.23;;;4.48;100.00
32873;BME280;19224;52.462;16.898;2023-11-21T06:20:22;99845.92;;;4.39;100.00
32873;BME280;19224;52.462;16.898;2023-11-21T06:22:52;99848.05;;;4.42;100.00
32873;BME280;19224;52.462;16.898;2023-11-21T06:25:24;99859.13;;;4.43;100.00
32873;BME280;19224;52.462;16.898;2023-11-21T06:27:55;99864.14;;;4.39;100.00
32873;BME280;19224;52.462;16.898;2023-11-21T06:30:26;99860.65;;;4.37;100.00
32873;BME280;19224;52.462;16.898;2023-11-21T06:32:57;99864.80;;;4.31;100.00
32873;BME280;19224;52.462;16.898;2023-11-21T06:35:29;99879.31;;;4.37;100.00
32873;BME280;19224;52.462;16.898;2023-11-21T06:38:01;99879.55;;;4.28;100.00
32873;BME280;19224;52.462;16.898;2023-11-21T06:40:32;99891.12;;;4.27;100.00
32873;BME280;19224;52.462;16.898;2023-11-21T06:43:02;99893.81;;;4.26;100.00
32873;BME280;19224;52.462;16.898;2023-11-21T06:45:34;99898.61;;;4.13;100.00
32873;BME280;19224;52.462;16.898;2023-11-21T06:48:05;99897.93;;;4.21;100.00
32873;BME280;19224;52.462;16.898;2023-11-21T06:50:35;99901.87;;;4.40;100.00
32873;BME280;19224;52.462;16.898;2023-11-21T06:53:05;99901.61;;;4.33;100.00
32873;BME280;19224;52.462;16.898;2023-11-21T06:55:37;99908.45;;;4.43;100.00
32873;BME280;19224;52.462;16.898;2023-11-21T06:58:07;99914.79;;;4.39;100.00
32873;BME280;19224;52.462;16.898;2023-11-21T07:00:38;99911.63;;;4.41;100.00
32873;BME280;19224;52.462;16.898;2023-11-21T07:03:08;99916.74;;;4.33;100.00
32873;BME280;19224;52.462;16.898;2023-11-21T07:05:39;99924.14;;;4.38;100.00
32873;BME280;19224;52.462;16.898;2023-11-21T07:08:12;99924.41;;;4.29;100.00
32873;BME280;19224;52.462;16.898;2023-11-21T07:10:43;99919.84;;;4.32;100.00
32873;BME280;19224;52.462;16.898;2023-11-21T07:13:13;99927.63;;;4.24;100.00
32873;BME280;19224;52.462;16.898;2023-11-21T07:15:44;99929.86;;;4.24;100.00
32873;BME280;19224;52.462;16.898;2023-11-21T07:18:14;99936.34;;;4.30;100.00
32873;BME280;19224;52.462;16.898;2023-11-21T07:20:44;99942.13;;;4.47;100.00
32873;BME280;19224;52.462;16.898;2023-11-21T07:23:15;99944.31;;;4.32;100.00
32873;BME280;19224;52.462;16.898;2023-11-21T07:25:45;99945.66;;;4.14;100.00
32873;BME280;19224;52.462;16.898;2023-11-21T07:28:16;99950.81;;;4.03;100.00
32873;BME280;19224;52.462;16.898;2023-11-21T07:30:46;99955.61;;;4.06;100.00
32873;BME280;19224;52.462;16.898;2023-11-21T07:33:17;99960.50;;;4.07;100.00
32873;BME280;19224;52.462;16.898;2023-11-21T07:35:47;99958.92;;;4.16;100.00
32873;BME280;19224;52.462;16.898;2023-11-21T07:38:17;99961.64;;;4.32;100.00
32873;BME280;19224;52.462;16.898;2023-11-21T07:40:47;99966.25;;;4.25;100.00
32873;BME280;19224;52.462;16.898;2023-11-21T07:43:18;99956.55;;;4.39;100.00
32873;BME280;19224;52.462;16.898;2023-11-21T07:45:48;99964.29;;;4.49;100.00
32873;BME280;19224;52.462;16.898;2023-11-21T07:48:19;99968.55;;;4.39;100.00
32873;BME280;19224;52.462;16.898;2023-11-21T07:50:49;99970.77;;;4.39;100.00
32873;BME280;19224;52.462;16.898;2023-11-21T07:53:19;99977.13;;;4.34;100.00
32873;BME280;19224;52.462;16.898;2023-11-21T07:55:51;99974.80;;;4.20;100.00
32873;BME280;19224;52.462;16.898;2023-11-21T07:58:22;99973.96;;;4.18;100.00
32873;BME280;19224;52.462;16.898;2023-11-21T08:00:52;99975.52;;;4.27;100.00
32873;BME280;19224;52.462;16.898;2023-11-21T08:03:23;99977.27;;;4.28;100.00
32873;BME280;19224;52.462;16.898;2023-11-21T08:05:59;99975.82;;;4.32;100.00
32873;BME280;19224;52.462;16.898;2023-11-21T08:08:27;99982.77;;;4.22;100.00
32873;BME280;19224;52.462;16.898;2023-11-21T08:10:57;99993.15;;;4.32;100.00
32873;BME280;19224;52.462;16.898;2023-11-21T08:13:28;99990.31;;;4.22;100.00
32873;BME280;19224;52.462;16.898;2023-11-21T08:16:02;99994.15;;;4.28;100.00
32873;BME280;19224;52.462;16.898;2023-11-21T08:18:34;99994.89;;;4.16;100.00
32873;BME280;19224;52.462;16.898;2023-11-21T08:21:04;99999.86;;;4.13;100.00
32873;BME280;19224;52.462;16.898;2023-11-21T08:23:35;100005.52;;;4.17;100.00
32873;BME280;19224;52.462;16.898;2023-11-21T08:26:06;99999.98;;;4.07;100.00
32873;BME280;19224;52.462;16.898;2023-11-21T08:28:37;100004.61;;;4.18;100.00
32873;BME280;19224;52.462;16.898;2023-11-21T08:31:07;100002.64;;;4.26;100.00
32873;BME280;19224;52.462;16.898;2023-11-21T08:33:38;100005.23;;;4.29;100.00
32873;BME280;19224;52.462;16.898;2023-11-21T08:36:11;100007.25;;;4.20;100.00
32873;BME280;19224;52.462;16.898;2023-11-21T08:38:42;100012.79;;;4.11;100.00
32873;BME280;19224;52.462;16.898;2023-11-21T08:41:12;100023.63;;;4.22;100.00
32873;BME280;19224;52.462;16.898;2023-11-21T08:43:43;100026.30;;;4.03;100.00
32873;BME280;19224;52.462;16.898;2023-11-21T08:46:14;100028.65;;;4.17;100.00
32873;BME280;19224;52.462;16.898;2023-11-21T08:48:46;100030.29;;;4.03;100.00
32873;BME280;19224;52.462;16.898;2023-11-21T08:51:16;100038.13;;;4.09;100.00
32873;BME280;19224;52.462;16.898;2023-11-21T08:53:47;100040.58;;;3.99;100.00
32873;BME280;19224;52.462;16.898;2023-11-21T08:56:17;100042.94;;;4.13;100.00
32873;BME280;19224;52.462;16.898;2023-11-21T08:58:49;100047.23;;;3.99;100.00
32873;BME280;19224;52.462;16.898;2023-11-21T09:01:19;100042.72;;;4.03;100.00
32873;BME280;19224;52.462;16.898;2023-11-21T09:03:50;100047.01;;;4.10;100.00
32873;BME280;19224;52.462;16.898;2023-11-21T09:06:20;100050.61;;;4.07;100.00
32873;BME280;19224;52.462;16.898;2023-11-21T09:08:51;100048.11;;;4.01;100.00
32873;BME280;19224;52.462;16.898;2023-11-21T09:11:22;100047.53;;;4.06;100.00
32873;BME280;19224;52.462;16.898;2023-11-21T09:13:52;100054.53;;;4.10;100.00
32873;BME280;19224;52.462;16.898;2023-11-21T09:16:23;100058.05;;;3.93;100.00
32873;BME280;19224;52.462;16.898;2023-11-21T09:18:55;100060.45;;;4.04;100.00
32873;BME280;19224;52.462;16.898;2023-11-21T09:21:25;100060.23;;;4.14;100.00
32873;BME280;19224;52.462;16.898;2023-11-21T09:23:56;100067.28;;;4.17;100.00
32873;BME280;19224;52.462;16.898;2023-11-21T09:26:30;100068.22;;;4.14;100.00
32873;BME280;19224;52.462;16.898;2023-11-21T09:29:00;100067.02;;;4.08;100.00
32873;BME280;19224;52.462;16.898;2023-11-21T09:31:31;100067.59;;;4.03;100.00
32873;BME280;19224;52.462;16.898;2023-11-21T09:34:02;100076.00;;;4.04;100.00
32873;BME280;19224;52.462;16.898;2023-11-21T09:36:33;100080.71;;;4.12;100.00
32873;BME280;19224;52.462;16.898;2023-11-21T09:39:03;100076.59;;;3.98;100.00
32873;BME280;19224;52.462;16.898;2023-11-21T09:41:48;100076.61;;;3.96;100.00
32873;BME280;19224;52.462;16.898;2023-11-21T09:44:17;100079.16;;;4.02;100.00
32873;BME280;19224;52.462;16.898;2023-11-21T09:46:48;100079.01;;;3.89;100.00
32873;BME280;19224;52.462;16.898;2023-11-21T09:49:24;100085.36;;;3.82;100.00
32873;BME280;19224;52.462;16.898;2023-11-21T09:51:57;100085.73;;;3.64;100.00
32873;BME280;19224;52.462;16.898;2023-11-21T09:54:30;100085.95;;;3.76;100.00
32873;BME280;19224;52.462;16.898;2023-11-21T09:57:00;100090.59;;;3.87;100.00
32873;BME280;19224;52.462;16.898;2023-11-21T09:59:32;100096.84;;;3.86;100.00
32873;BME280;19224;52.462;16.898;2023-11-21T10:02:03;100094.56;;;3.66;100.00
32873;BME280;19224;52.462;16.898;2023-11-21T10:04:34;100102.27;;;3.59;100.00
32873;BME280;19224;52.462;16.898;2023-11-21T10:07:05;100094.81;;;3.54;100.00
32873;BME280;19224;52.462;16.898;2023-11-21T10:09:38;100100.94;;;3.59;100.00
32873;BME280;19224;52.462;16.898;2023-11-21T10:12:10;100109.84;;;3.58;100.00
32873;BME280;19224;52.462;16.898;2023-11-21T10:14:43;100101.93;;;3.76;100.00
32873;BME280;19224;52.462;16.898;2023-11-21T10:17:16;100105.03;;;3.75;100.00
32873;BME280;19224;52.462;16.898;2023-11-21T10:19:51;100105.52;;;3.73;100.00
32873;BME280;19224;52.462;16.898;2023-11-21T10:22:25;100104.38;;;3.64;100.00
32873;BME280;19224;52.462;16.898;2023-11-21T10:24:56;100107.42;;;3.68;100.00
32873;BME280;19224;52.462;16.898;2023-11-21T10:27:28;100101.53;;;3.73;100.00
32873;BME280;19224;52.462;16.898;2023-11-21T10:30:00;100104.69;;;3.71;100.00
32873;BME280;19224;52.462;16.898;2023-11-21T10:32:30;100110.59;;;3.65;100.00
32873;BME280;19224;52.462;16.898;2023-11-21T10:35:04;100111.17;;;3.58;100.00
32873;BME280;19224;52.462;16.898;2023-11-21T10:37:42;100108.44;;;3.61;100.00
32873;BME280;19224;52.462;16.898;2023-11-21T10:40:13;100109.02;;;3.75;100.00
32873;BME280;19224;52.462;16.898;2023-11-21T10:42:43;100108.75;;;3.68;100.00
32873;BME280;19224;52.462;16.898;2023-11-21T10:45:13;100111.99;;;3.62;100.00
32873;BME280;19224;52.462;16.898;2023-11-21T10:47:45;100115.84;;;3.68;100.00
32873;BME280;19224;52.462;16.898;2023-11-21T10:50:15;100118.00;;;3.71;100.00
32873;BME280;19224;52.462;16.898;2023-11-21T10:52:47;100119.84;;;3.68;100.00
32873;BME280;19224;52.462;16.898;2023-11-21T10:55:21;100121.43;;;3.76;100.00
32873;BME280;19224;52.462;16.898;2023-11-21T10:57:54;100117.51;;;3.73;100.00
32873;BME280;19224;52.462;16.898;2023-11-21T11:00:28;100123.33;;;3.71;100.00
32873;BME280;19224;52.462;16.898;2023-11-21T11:03:00;100135.66;;;3.75;100.00
32873;BME280;19224;52.462;16.898;2023-11-21T11:05:31;100130.33;;;3.75;100.00
32873;BME280;19224;52.462;16.898;2023-11-21T11:08:09;100137.95;;;3.93;100.00
32873;BME280;19224;52.462;16.898;2023-11-21T11:10:41;100143.39;;;3.87;100.00
32873;BME280;19224;52.462;16.898;2023-11-21T11:13:11;100137.48;;;3.73;100.00
32873;BME280;19224;52.462;16.898;2023-11-21T11:15:49;100140.95;;;3.56;100.00
32873;BME280;19224;52.462;16.898;2023-11-21T11:18:20;100142.70;;;3.57;100.00
32873;BME280;19224;52.462;16.898;2023-11-21T11:20:52;100146.63;;;3.60;100.00
32873;BME280;19224;52.462;16.898;2023-11-21T11:23:46;100143.78;;;3.69;100.00
32873;BME280;19224;52.462;16.898;2023-11-21T11:26:47;100147.48;;;3.61;100.00
32873;BME280;19224;52.462;16.898;2023-11-21T11:30:41;100153.02;;;3.50;100.00
32873;BME280;19224;52.462;16.898;2023-11-21T11:32:22;100153.02;;;3.50;100.00
32873;BME280;19224;52.462;16.898;2023-11-21T11:35:04;100157.34;;;3.57;100.00
32873;BME280;19224;52.462;16.898;2023-11-21T11:37:33;100155.63;;;3.53;100.00
32873;BME280;19224;52.462;16.898;2023-11-21T11:40:10;100166.12;;;3.61;100.00
32873;BME280;19224;52.462;16.898;2023-11-21T11:43:00;100168.09;;;3.51;100.00
32873;BME280;19224;52.462;16.898;2023-11-21T11:45:35;100182.22;;;3.55;100.00
32873;BME280;19224;52.462;16.898;2023-11-21T11:48:07;100182.80;;;3.48;100.00
32873;BME280;19224;52.462;16.898;2023-11-21T11:50:49;100193.92;;;3.46;100.00
32873;BME280;19224;52.462;16.898;2023-11-21T11:53:16;100200.09;;;3.48;100.00
32873;BME280;19224;52.462;16.898;2023-11-21T11:55:47;100200.44;;;3.54;100.00
32873;BME280;19224;52.462;16.898;2023-11-21T11:58:19;100206.20;;;3.53;100.00
32873;BME280;19224;52.462;16.898;2023-11-21T12:00:51;100212.92;;;3.25;100.00
32873;BME280;19224;52.462;16.898;2023-11-21T12:03:23;100220.91;;;3.25;100.00
32873;BME280;19224;52.462;16.898;2023-11-21T12:05:55;100223.98;;;3.51;100.00
32873;BME280;19224;52.462;16.898;2023-11-21T12:08:29;100222.47;;;3.37;100.00
32873;BME280;19224;52.462;16.898;2023-11-21T12:11:03;100226.53;;;3.32;100.00
32873;BME280;19224;52.462;16.898;2023-11-21T12:13:34;100226.19;;;3.27;100.00
32873;BME280;19224;52.462;16.898;2023-11-21T12:16:07;100230.00;;;3.39;100.00
32873;BME280;19224;52.462;16.898;2023-11-21T12:18:37;100227.08;;;3.27;100.00
32873;BME280;19224;52.462;16.898;2023-11-21T12:21:08;100233.52;;;3.13;100.00
32873;BME280;19224;52.462;16.898;2023-11-21T12:23:38;100228.41;;;3.27;100.00
32873;BME280;19224;52.462;16.898;2023-11-21T12:26:10;100232.05;;;3.22;100.00
32873;BME280;19224;52.462;16.898;2023-11-21T12:28:40;100221.33;;;3.26;100.00
32873;BME280;19224;52.462;16.898;2023-11-21T12:31:11;100231.56;;;3.24;100.00
32873;BME280;19224;52.462;16.898;2023-11-21T12:33:41;100231.06;;;3.27;100.00
32873;BME280;19224;52.462;16.898;2023-11-21T12:36:12;100232.45;;;3.24;100.00
32873;BME280;19224;52.462;16.898;2023-11-21T12:38:43;100226.92;;;3.36;100.00
32873;BME280;19224;52.462;16.898;2023-11-21T12:41:15;100231.33;;;3.39;100.00
32873;BME280;19224;52.462;16.898;2023-11-21T12:43:46;100238.13;;;3.55;100.00
32873;BME280;19224;52.462;16.898;2023-11-21T12:46:17;100241.42;;;3.45;100.00
32873;BME280;19224;52.462;16.898;2023-11-21T12:48:49;100243.47;;;3.53;100.00
32873;BME280;19224;52.462;16.898;2023-11-21T12:51:19;100248.43;;;3.49;100.00
32873;BME280;19224;52.462;16.898;2023-11-21T12:53:51;100245.64;;;3.30;100.00
32873;BME280;19224;52.462;16.898;2023-11-21T12:56:23;100250.88;;;3.36;100.00
32873;BME280;19224;52.462;16.898;2023-11-21T12:58:54;100244.80;;;3.28;100.00
32873;BME280;19224;52.462;16.898;2023-11-21T13:01:26;100255.38;;;3.31;100.00
32873;BME280;19224;52.462;16.898;2023-11-21T13:03:59;100259.70;;;3.40;100.00
32873;BME280;19224;52.462;16.898;2023-11-21T13:06:32;100271.28;;;3.36;100.00